createdAt,value
2023-05-10T00:01:16.552Z,37.48
2023-05-10T00:03:47.034Z,37.68
2023-05-10T00:06:19.634Z,37.76
2023-05-10T00:08:46.898Z,37.16
2023-05-10T00:11:14.543Z,37.41
2023-05-10T00:13:47.394Z,37.25
2023-05-10T00:16:15.055Z,37.20
2023-05-10T00:18:42.493Z,37.08
2023-05-10T00:21:10.485Z,37.30
2023-05-10T00:23:40.157Z,37.73
2023-05-10T00:26:10.943Z,37.30
2023-05-10T00:28:46.643Z,37.44
2023-05-10T00:31:16.922Z,37.49
2023-05-10T00:33:47.378Z,37.45
2023-05-10T00:36:20.414Z,37.35
2023-05-10T00:38:47.930Z,37.31
2023-05-10T00:41:22.213Z,37.45
2023-05-10T00:43:49.715Z,37.08
2023-05-10T00:46:20.391Z,37.26
2023-05-10T00:48:48.514Z,37.12
2023-05-10T00:51:16.048Z,37.47
2023-05-10T00:53:46.644Z,37.39
2023-05-10T00:56:23.880Z,37.09
2023-05-10T00:58:54.092Z,37.44
2023-05-10T01:01:23.417Z,37.28
2023-05-10T01:03:56.969Z,36.99
2023-05-10T01:06:27.258Z,36.97
2023-05-10T01:08:57.248Z,36.88
2023-05-10T01:11:24.589Z,36.87
2023-05-10T01:13:57.579Z,36.80
2023-05-10T01:16:28.810Z,36.82
2023-05-10T01:18:56.493Z,36.85
2023-05-10T01:21:41.443Z,36.58
2023-05-10T01:24:36.551Z,36.76
2023-05-10T01:27:37.894Z,36.41
2023-05-10T01:30:44.580Z,36.50
2023-05-10T01:33:47.868Z,36.70
2023-05-10T01:36:38.839Z,36.47
2023-05-10T01:39:15.462Z,36.30
2023-05-10T01:41:54.867Z,36.58
2023-05-10T01:44:49.178Z,35.97
2023-05-10T01:47:41.564Z,36.30
2023-05-10T01:50:17.151Z,36.09
2023-05-10T01:52:58.000Z,35.94
2023-05-10T01:55:42.827Z,36.29
2023-05-10T01:58:22.237Z,36.00
2023-05-10T02:00:51.983Z,35.62
2023-05-10T02:03:23.345Z,35.53
2023-05-10T02:05:55.731Z,35.83
2023-05-10T02:08:30.219Z,35.54
2023-05-10T02:10:59.656Z,35.80
2023-05-10T02:13:29.435Z,35.95
2023-05-10T02:15:58.586Z,35.47
2023-05-10T02:18:29.453Z,35.82
2023-05-10T02:21:01.297Z,35.55
2023-05-10T02:23:29.721Z,35.54
2023-05-10T02:26:01.238Z,35.86
2023-05-10T02:28:29.417Z,35.43
2023-05-10T02:31:00.188Z,35.39
2023-05-10T02:33:29.131Z,35.76
2023-05-10T02:35:57.711Z,36.11
2023-05-10T02:38:32.357Z,35.92
2023-05-10T02:41:00.579Z,36.16
2023-05-10T02:43:34.423Z,36.43
2023-05-10T02:46:02.880Z,36.29
2023-05-10T02:48:34.519Z,36.35
2023-05-10T02:51:06.786Z,36.30
2023-05-10T02:53:39.572Z,36.76
2023-05-10T02:56:14.732Z,36.24
2023-05-10T02:58:42.173Z,36.61
2023-05-10T03:01:12.958Z,36.16
2023-05-10T03:03:40.311Z,36.50
2023-05-10T03:06:15.265Z,36.84
2023-05-10T03:08:44.092Z,36.56
2023-05-10T03:11:28.752Z,36.60
2023-05-10T03:14:17.494Z,36.95
2023-05-10T03:17:00.736Z,36.77
2023-05-10T03:19:39.317Z,36.57
2023-05-10T03:22:18.864Z,36.68
2023-05-10T03:24:48.284Z,37.09
2023-05-10T03:27:16.803Z,37.10
2023-05-10T03:29:47.710Z,37.11
2023-05-10T03:32:18.730Z,37.04
2023-05-10T03:34:46.118Z,36.66
2023-05-10T03:37:13.552Z,37.24
2023-05-10T03:39:41.444Z,36.95
2023-05-10T03:42:12.907Z,37.16
2023-05-10T03:44:46.089Z,37.19
2023-05-10T03:47:18.741Z,36.86
2023-05-10T03:49:52.520Z,36.86
2023-05-10T03:52:20.216Z,36.57
2023-05-10T03:54:48.750Z,37.27
2023-05-10T03:57:18.823Z,37.19
2023-05-10T03:59:46.378Z,37.26
2023-05-10T04:02:19.822Z,37.03
2023-05-10T04:04:49.453Z,37.00
2023-05-10T04:07:19.396Z,36.68
2023-05-10T04:09:49.598Z,36.81
2023-05-10T04:12:22.916Z,37.26
2023-05-10T04:14:53.147Z,37.46
2023-05-10T04:17:23.673Z,37.30
2023-05-10T04:19:54.035Z,36.93
2023-05-10T04:22:25.253Z,37.26
2023-05-10T04:24:55.819Z,37.07
2023-05-10T04:27:23.149Z,37.20
2023-05-10T04:29:51.227Z,37.26
2023-05-10T04:32:21.521Z,37.57
2023-05-10T04:34:54.524Z,37.22
2023-05-10T04:37:24.684Z,37.49
2023-05-10T04:39:57.964Z,37.35
2023-05-10T04:42:28.199Z,36.99
2023-05-10T04:45:01.355Z,37.41
2023-05-10T04:47:28.851Z,37.54
2023-05-10T04:49:59.611Z,37.45
2023-05-10T04:52:27.104Z,37.50
2023-05-10T04:54:54.559Z,37.44
2023-05-10T04:57:22.992Z,37.34
2023-05-10T04:59:50.780Z,37.12
2023-05-10T05:02:18.776Z,37.47
2023-05-10T05:04:49.688Z,37.48
2023-05-10T05:07:17.699Z,37.39
2023-05-10T05:09:45.050Z,37.48
2023-05-10T05:12:15.406Z,37.53
2023-05-10T05:14:42.765Z,37.43
2023-05-10T05:17:12.961Z,37.66
2023-05-10T05:19:40.351Z,37.36
2023-05-10T05:22:10.704Z,36.95
2023-05-10T05:24:44.043Z,37.14
2023-05-10T05:27:14.206Z,37.43
2023-05-10T05:29:49.895Z,37.49
2023-05-10T05:32:17.455Z,37.40
2023-05-10T05:34:50.992Z,37.50
2023-05-10T05:37:22.255Z,36.76
2023-05-10T05:39:52.747Z,37.35
2023-05-10T05:42:26.277Z,37.11
2023-05-10T05:44:58.922Z,37.36
2023-05-10T05:47:30.127Z,37.42
2023-05-10T05:50:01.521Z,37.53
2023-05-10T05:52:37.306Z,38.14
2023-05-10T05:55:05.462Z,37.43
2023-05-10T05:57:33.405Z,37.16
2023-05-10T06:00:01.237Z,37.73
2023-05-10T06:02:28.959Z,37.55
2023-05-10T06:04:56.517Z,38.08
2023-05-10T06:07:28.604Z,37.68
2023-05-10T06:09:59.138Z,37.66
2023-05-10T06:12:29.579Z,37.55
2023-05-10T06:14:57.645Z,37.47
2023-05-10T06:17:31.580Z,37.83
2023-05-10T06:19:59.366Z,37.63
2023-05-10T06:22:30.747Z,37.93
2023-05-10T06:24:58.434Z,38.38
2023-05-10T06:27:29.289Z,37.97
2023-05-10T06:30:11.569Z,37.79
2023-05-10T06:32:47.216Z,37.68
2023-05-10T06:35:15.464Z,37.70
2023-05-10T06:37:46.745Z,37.56
2023-05-10T06:40:18.159Z,37.36
2023-05-10T06:42:47.424Z,37.03
2023-05-10T06:45:19.030Z,36.28
2023-05-10T06:47:47.200Z,36.36
2023-05-10T06:50:20.654Z,36.66
2023-05-10T06:52:52.364Z,36.68
2023-05-10T06:55:25.780Z,36.52
2023-05-10T06:57:59.635Z,36.16
2023-05-10T07:00:30.002Z,36.53
2023-05-10T07:02:58.183Z,36.07
2023-05-10T07:05:29.931Z,36.26
2023-05-10T07:07:58.649Z,36.22
2023-05-10T07:10:29.448Z,35.95
2023-05-10T07:13:00.014Z,35.86
2023-05-10T07:15:28.321Z,36.67
2023-05-10T07:18:01.595Z,35.58
2023-05-10T07:20:29.701Z,35.94
2023-05-10T07:22:59.970Z,35.38
2023-05-10T07:25:30.908Z,35.56
2023-05-10T07:27:58.656Z,35.68
2023-05-10T07:30:31.833Z,35.26
2023-05-10T07:33:02.360Z,35.12
2023-05-10T07:35:30.475Z,35.34
2023-05-10T07:38:00.695Z,35.46
2023-05-10T07:40:32.180Z,35.53
2023-05-10T07:43:02.698Z,35.56
2023-05-10T07:45:35.695Z,35.49
2023-05-10T07:48:06.884Z,35.74
2023-05-10T07:50:36.385Z,35.38
2023-05-10T07:53:10.203Z,35.93
2023-05-10T07:55:38.202Z,35.59
2023-05-10T07:58:11.918Z,35.50
2023-05-10T08:00:46.851Z,35.46
2023-05-10T08:03:21.296Z,35.13
2023-05-10T08:05:55.140Z,35.06
2023-05-10T08:08:28.849Z,35.29
2023-05-10T08:11:04.302Z,35.14
2023-05-10T08:13:34.486Z,34.78
2023-05-10T08:16:03.538Z,34.72
2023-05-10T08:18:34.279Z,34.97
2023-05-10T08:21:05.426Z,35.55
2023-05-10T08:23:34.127Z,35.87
2023-05-10T08:26:10.462Z,35.56
2023-05-10T08:28:38.681Z,35.32
2023-05-10T08:31:11.616Z,35.55
2023-05-10T08:33:44.869Z,35.57
2023-05-10T08:36:22.516Z,35.98
2023-05-10T08:38:54.470Z,36.16
2023-05-10T08:41:25.629Z,36.26
2023-05-10T08:43:55.457Z,36.48
2023-05-10T08:46:24.583Z,36.58
2023-05-10T08:48:54.897Z,36.20
2023-05-10T08:51:28.160Z,36.34
2023-05-10T08:53:56.571Z,36.61
2023-05-10T08:56:27.273Z,36.89
2023-05-10T08:59:02.907Z,36.54
2023-05-10T09:01:34.045Z,36.12
2023-05-10T09:04:05.596Z,36.31
2023-05-10T09:06:42.572Z,36.19
2023-05-10T09:13:54.149Z,35.89
2023-05-10T09:16:22.589Z,34.98
2023-05-10T09:18:55.719Z,35.42
2023-05-10T09:21:23.527Z,34.79
2023-05-10T09:23:53.567Z,34.29
2023-05-10T09:26:27.834Z,34.60
2023-05-10T09:29:03.500Z,34.80
2023-05-10T09:31:49.569Z,33.69
2023-05-10T09:34:22.217Z,35.03
2023-05-10T09:36:55.407Z,34.90
2023-05-10T09:39:43.459Z,35.54
2023-05-10T09:42:11.682Z,35.37
2023-05-10T09:44:44.986Z,35.81
2023-05-10T09:47:23.623Z,35.87
2023-05-10T09:49:58.917Z,36.08
2023-05-10T09:52:48.660Z,35.73
2023-05-10T09:55:24.668Z,35.95
2023-05-10T09:58:03.082Z,35.78
2023-05-10T10:00:37.150Z,35.42
2023-05-10T10:03:05.636Z,36.04
2023-05-10T10:05:37.351Z,35.77
2023-05-10T10:08:08.706Z,36.23
2023-05-10T10:10:42.641Z,36.28
2023-05-10T10:13:16.755Z,36.35
2023-05-10T10:15:52.357Z,36.44
2023-05-10T10:18:25.286Z,36.44
2023-05-10T10:20:57.515Z,36.53
2023-05-10T10:23:25.761Z,36.48
2023-05-10T10:25:58.219Z,36.45
2023-05-10T10:28:39.474Z,36.91
2023-05-10T10:31:39.936Z,36.89
2023-05-10T10:34:08.882Z,36.97
2023-05-10T10:36:47.721Z,37.36
2023-05-10T10:39:19.043Z,37.15
2023-05-10T10:41:54.085Z,37.05
2023-05-10T10:44:26.262Z,36.73
2023-05-10T10:47:19.993Z,36.86
2023-05-10T10:50:03.624Z,36.71
2023-05-10T10:52:44.711Z,36.88
2023-05-10T10:55:15.205Z,37.36
2023-05-10T10:58:01.919Z,37.13
2023-05-10T11:00:34.236Z,37.20
2023-05-10T11:03:15.743Z,37.91
2023-05-10T11:05:49.489Z,37.91
2023-05-10T11:08:29.955Z,37.82
2023-05-10T11:11:01.080Z,37.73
2023-05-10T11:13:56.792Z,38.15
2023-05-10T11:16:28.455Z,38.30
2023-05-10T11:19:17.615Z,37.91
2023-05-10T11:22:12.234Z,38.12
2023-05-10T11:24:41.073Z,38.26
2023-05-10T11:27:12.919Z,38.39
2023-05-10T11:29:41.413Z,38.60
2023-05-10T11:32:09.889Z,38.45
2023-05-10T11:34:40.507Z,38.38
2023-05-10T11:37:08.497Z,38.53
2023-05-10T11:39:40.257Z,38.49
2023-05-10T11:42:12.411Z,38.41
2023-05-10T11:44:43.087Z,38.31
2023-05-10T11:47:19.416Z,38.95
2023-05-10T11:49:53.086Z,38.86
2023-05-10T11:52:26.475Z,39.03
2023-05-10T11:55:03.842Z,38.88
2023-05-10T11:57:36.460Z,38.74
2023-05-10T12:00:10.392Z,38.25
2023-05-10T12:02:38.606Z,38.44
2023-05-10T12:05:07.838Z,38.53
2023-05-10T12:07:41.754Z,38.45
2023-05-10T12:10:16.756Z,38.96
2023-05-10T12:12:46.744Z,39.38
2023-05-10T12:15:29.161Z,38.80
2023-05-10T12:17:59.454Z,38.90
2023-05-10T12:20:31.516Z,39.14
2023-05-10T12:23:06.772Z,39.18
2023-05-10T12:25:38.869Z,39.51
2023-05-10T12:28:08.786Z,39.42
2023-05-10T12:30:48.424Z,39.48
2023-05-10T12:33:20.214Z,39.56
2023-05-10T12:35:55.594Z,39.92
2023-05-10T12:38:38.977Z,39.71
2023-05-10T12:41:11.366Z,39.50
2023-05-10T12:43:44.596Z,39.49
2023-05-10T12:46:14.325Z,39.60
2023-05-10T12:48:47.523Z,38.91
2023-05-10T12:51:23.274Z,38.40
2023-05-10T12:53:58.891Z,37.63
2023-05-10T12:56:29.287Z,37.97
2023-05-10T12:58:59.911Z,37.70
2023-05-10T13:01:31.084Z,38.17
2023-05-10T13:04:04.148Z,38.24
2023-05-10T13:06:32.624Z,38.26
2023-05-10T13:09:00.783Z,38.74
2023-05-10T13:11:28.537Z,37.86
2023-05-10T13:13:56.692Z,37.90
2023-05-10T13:16:29.258Z,37.71
2023-05-10T13:19:02.809Z,36.86
2023-05-10T13:21:33.728Z,37.42
2023-05-10T13:24:07.837Z,37.32
2023-05-10T13:26:43.419Z,37.65
2023-05-10T13:29:18.435Z,37.18
2023-05-10T13:31:49.732Z,37.33
2023-05-10T13:34:21.737Z,37.71
2023-05-10T13:36:53.161Z,37.68
2023-05-10T13:39:27.216Z,37.68
2023-05-10T13:42:01.608Z,38.54
2023-05-10T13:44:35.315Z,38.44
2023-05-10T13:47:07.978Z,38.66
2023-05-10T13:49:36.412Z,38.79
2023-05-10T13:52:14.080Z,38.75
2023-05-10T13:54:47.071Z,38.88
2023-05-10T13:57:15.193Z,38.97
2023-05-10T13:59:48.216Z,39.08
2023-05-10T14:02:18.740Z,39.37
2023-05-10T14:04:49.392Z,39.07
2023-05-10T14:07:19.992Z,39.35
2023-05-10T14:09:51.232Z,39.25
2023-05-10T14:12:24.199Z,39.31
2023-05-10T14:14:59.691Z,39.16
2023-05-10T14:17:33.001Z,38.66
2023-05-10T14:20:04.823Z,39.18
2023-05-10T14:22:41.997Z,39.42
2023-05-10T14:25:12.607Z,39.50
2023-05-10T14:27:40.476Z,39.29
2023-05-10T14:30:16.773Z,39.60
2023-05-10T14:32:47.554Z,39.33
2023-05-10T14:35:20.197Z,39.30
2023-05-10T14:37:50.791Z,39.25
2023-05-10T14:40:24.178Z,39.76
2023-05-10T14:42:54.080Z,39.36
2023-05-10T14:45:27.768Z,39.47
2023-05-10T14:47:58.660Z,39.53
2023-05-10T14:50:36.919Z,39.40
2023-05-10T14:53:08.120Z,39.51
2023-05-10T14:55:39.157Z,39.66
2023-05-10T14:58:11.683Z,40.00
2023-05-10T15:00:42.532Z,39.87
2023-05-10T15:03:18.759Z,40.59
2023-05-10T15:05:50.360Z,39.82
2023-05-10T15:08:21.376Z,40.23
2023-05-10T15:10:52.202Z,40.61
2023-05-10T15:13:22.644Z,40.70
2023-05-10T15:15:54.347Z,40.03
2023-05-10T15:18:25.023Z,40.31
2023-05-10T15:20:55.563Z,40.54
2023-05-10T15:23:27.286Z,40.61
2023-05-10T15:26:03.432Z,40.44
2023-05-10T15:28:37.103Z,40.44
2023-05-10T15:31:13.166Z,40.51
2023-05-10T15:33:48.325Z,40.29
2023-05-10T15:36:21.970Z,40.00
2023-05-10T15:38:52.483Z,40.59
2023-05-10T15:41:27.568Z,40.29
2023-05-10T15:44:01.565Z,40.16
2023-05-10T15:46:39.073Z,40.10
2023-05-10T15:49:09.783Z,40.79
2023-05-10T15:51:44.026Z,40.49
2023-05-10T15:54:14.806Z,40.52
2023-05-10T15:56:48.175Z,40.59
2023-05-10T15:59:20.378Z,40.91
2023-05-10T16:01:52.173Z,41.64
2023-05-10T16:04:23.822Z,42.51
2023-05-10T16:07:02.056Z,42.49
2023-05-10T16:09:34.299Z,42.54
2023-05-10T16:12:04.660Z,42.51
2023-05-10T16:14:35.482Z,42.76
2023-05-10T16:17:11.728Z,43.08
2023-05-10T16:19:41.936Z,43.10
2023-05-10T16:22:12.247Z,43.11
2023-05-10T16:24:42.563Z,43.67
2023-05-10T16:27:18.781Z,43.68
2023-05-10T16:29:48.986Z,44.11
2023-05-10T16:32:22.375Z,44.02
2023-05-10T16:34:55.801Z,44.23
2023-05-10T16:37:23.358Z,44.29
2023-05-10T16:39:51.028Z,44.36
2023-05-10T16:42:18.853Z,44.47
2023-05-10T16:44:46.422Z,44.47
2023-05-10T16:47:14.012Z,44.85
2023-05-10T16:49:41.740Z,45.26
2023-05-10T16:52:12.626Z,44.97
2023-05-10T16:54:49.012Z,44.77
2023-05-10T16:57:21.536Z,44.42
2023-05-10T16:59:57.011Z,44.31
2023-05-10T17:02:29.381Z,43.85
2023-05-10T17:05:02.204Z,43.86
2023-05-10T17:07:29.622Z,43.73
2023-05-10T17:09:59.127Z,43.68
2023-05-10T17:12:29.117Z,43.40
2023-05-10T17:15:01.805Z,43.46
2023-05-10T17:17:32.560Z,43.34
2023-05-10T17:20:08.187Z,43.46
2023-05-10T17:22:40.352Z,43.37
2023-05-10T17:25:13.455Z,43.17
2023-05-10T17:27:40.880Z,43.09
2023-05-10T17:30:11.661Z,43.14
2023-05-10T17:32:41.414Z,42.99
2023-05-10T17:35:17.628Z,43.07
2023-05-10T17:37:53.539Z,42.95
2023-05-10T17:40:23.511Z,42.77
2023-05-10T17:42:52.131Z,43.03
2023-05-10T17:45:22.095Z,43.01
2023-05-10T17:47:51.680Z,42.62
2023-05-10T17:50:22.179Z,42.87
2023-05-10T17:52:49.647Z,42.91
2023-05-10T17:55:18.194Z,43.08
2023-05-10T17:57:45.911Z,42.90
2023-05-10T18:00:17.168Z,42.91
2023-05-10T18:02:44.611Z,42.91
2023-05-10T18:05:14.667Z,42.95
2023-05-10T18:07:43.014Z,42.71
2023-05-10T18:10:13.546Z,42.90
2023-05-10T18:12:44.430Z,42.88
2023-05-10T18:15:14.394Z,42.83
2023-05-10T18:17:44.369Z,42.74
2023-05-10T18:20:15.307Z,42.50
2023-05-10T18:22:48.155Z,42.52
2023-05-10T18:25:20.789Z,42.71
2023-05-10T18:27:54.068Z,42.58
2023-05-10T18:30:23.003Z,42.61
2023-05-10T18:32:55.004Z,42.79
2023-05-10T18:35:25.185Z,42.87
2023-05-10T18:37:56.161Z,42.63
2023-05-10T18:40:28.689Z,42.73
2023-05-10T18:43:01.609Z,42.56
2023-05-10T18:45:31.931Z,42.94
2023-05-10T18:48:06.726Z,42.61
2023-05-10T18:50:39.591Z,42.53
2023-05-10T18:53:12.371Z,42.50
2023-05-10T18:55:46.593Z,42.57
2023-05-10T18:58:16.290Z,42.35
2023-05-10T19:00:48.858Z,42.43
2023-05-10T19:03:19.168Z,42.48
2023-05-10T19:05:53.043Z,42.41
2023-05-10T19:08:20.834Z,42.52
2023-05-10T19:10:55.056Z,42.30
2023-05-10T19:13:27.675Z,42.30
2023-05-10T19:16:13.202Z,42.35
2023-05-10T19:18:47.077Z,42.19
2023-05-10T19:21:17.914Z,42.40
2023-05-10T19:23:49.964Z,42.44
2023-05-10T19:26:24.642Z,42.23
2023-05-10T19:28:58.966Z,42.18
2023-05-10T19:31:31.749Z,42.35
2023-05-10T19:34:01.149Z,42.20
2023-05-10T19:36:32.766Z,42.28
2023-05-10T19:39:00.333Z,42.41
2023-05-10T19:41:33.359Z,42.16
2023-05-10T19:44:04.089Z,42.26
2023-05-10T19:46:39.953Z,42.00
2023-05-10T19:49:10.360Z,42.08
2023-05-10T19:51:44.083Z,42.06
2023-05-10T19:54:11.665Z,42.04
2023-05-10T19:56:47.288Z,42.31
2023-05-10T19:59:17.209Z,41.94
2023-05-10T20:01:50.678Z,42.24
2023-05-10T20:04:19.923Z,42.36
2023-05-10T20:06:49.761Z,42.45
2023-05-10T20:09:20.787Z,42.07
2023-05-10T20:11:53.296Z,42.38
2023-05-10T20:14:23.213Z,42.11
2023-05-10T20:16:50.944Z,42.08
2023-05-10T20:19:18.775Z,41.99
2023-05-10T20:21:48.828Z,42.26
2023-05-10T20:24:21.776Z,42.30
2023-05-10T20:26:51.865Z,42.38
2023-05-10T20:29:31.006Z,42.33
2023-05-10T20:32:03.182Z,42.32
2023-05-10T20:34:31.149Z,42.34
2023-05-10T20:37:00.695Z,42.07
2023-05-10T20:39:31.301Z,42.38
2023-05-10T20:42:01.028Z,42.22
2023-05-10T20:44:34.400Z,42.16
2023-05-10T20:47:10.739Z,41.99
2023-05-10T20:49:43.806Z,42.36
2023-05-10T20:52:14.216Z,42.24
2023-05-10T20:54:43.806Z,42.26
2023-05-10T20:57:14.871Z,42.41
2023-05-10T20:59:44.673Z,42.15
2023-05-10T21:02:15.444Z,42.43
2023-05-10T21:04:48.108Z,42.06
2023-05-10T21:07:20.442Z,42.15
2023-05-10T21:09:53.189Z,42.25
2023-05-10T21:12:23.986Z,42.08
2023-05-10T21:14:53.770Z,42.14
2023-05-10T21:17:29.046Z,41.90
2023-05-10T21:19:57.183Z,42.08
2023-05-10T21:22:29.831Z,41.98
2023-05-10T21:25:00.236Z,42.05
2023-05-10T21:27:33.125Z,42.13
2023-05-10T21:30:03.145Z,42.15
2023-05-10T21:32:35.762Z,42.00
2023-05-10T21:35:06.509Z,42.26
2023-05-10T21:37:41.501Z,42.15
2023-05-10T21:40:14.537Z,41.99
2023-05-10T21:42:46.620Z,42.34
2023-05-10T21:45:17.310Z,42.02
2023-05-10T21:47:50.227Z,42.16
2023-05-10T21:50:22.958Z,41.98
2023-05-10T21:52:54.395Z,41.94
2023-05-10T21:55:23.294Z,41.88
2023-05-10T21:57:51.216Z,42.18
2023-05-10T22:00:21.562Z,42.13
2023-05-10T22:02:54.374Z,41.96
2023-05-10T22:05:24.023Z,41.99
2023-05-10T22:07:57.435Z,42.13
2023-05-10T22:10:29.915Z,42.10
2023-05-10T22:13:03.078Z,41.93
2023-05-10T22:15:36.157Z,41.92
2023-05-10T22:18:06.726Z,42.01
2023-05-10T22:20:35.092Z,41.96
2023-05-10T22:23:07.550Z,42.17
2023-05-10T22:25:35.287Z,42.29
2023-05-10T22:28:05.521Z,42.13
2023-05-10T22:30:37.647Z,42.27
2023-05-10T22:33:10.253Z,42.44
2023-05-10T22:35:39.968Z,42.05
2023-05-10T22:38:09.555Z,42.25
2023-05-10T22:40:39.628Z,42.17
2023-05-10T22:43:09.454Z,41.92
2023-05-10T22:45:39.506Z,41.89
2023-05-10T22:48:09.365Z,42.15
2023-05-10T22:50:41.251Z,42.16
2023-05-10T22:53:14.071Z,41.90
2023-05-10T22:55:41.639Z,41.97
2023-05-10T22:58:11.431Z,42.10
2023-05-10T23:00:38.846Z,42.17
2023-05-10T23:03:16.344Z,42.15
2023-05-10T23:05:48.314Z,42.06
2023-05-10T23:08:18.026Z,42.13
2023-05-10T23:10:50.554Z,42.13
2023-05-10T23:13:21.907Z,42.15
2023-05-10T23:15:52.059Z,42.06
2023-05-10T23:18:24.858Z,42.21
2023-05-10T23:20:55.051Z,42.18
2023-05-10T23:23:27.528Z,41.93
2023-05-10T23:26:02.190Z,42.06
2023-05-10T23:28:34.862Z,41.98
2023-05-10T23:31:07.667Z,42.05
2023-05-10T23:33:40.986Z,42.11
2023-05-10T23:36:11.300Z,41.98
2023-05-10T23:38:46.282Z,42.08
2023-05-10T23:41:16.735Z,41.96
2023-05-10T23:43:46.553Z,42.11
2023-05-10T23:46:16.896Z,42.03
2023-05-10T23:48:46.761Z,42.19
2023-05-10T23:51:16.674Z,42.00
2023-05-10T23:53:46.620Z,42.10
2023-05-10T23:56:16.665Z,42.17
2023-05-10T23:58:46.470Z,42.25
